createdAt,value
2018-07-10T11:04:04.330Z,99130.20
2018-07-10T11:07:16.560Z,99132.91
2018-07-10T11:10:29.486Z,99122.72
2018-07-10T11:13:36.534Z,99122.39
2018-07-10T11:16:41.306Z,99105.45
2018-07-10T11:19:55.520Z,99108.06
2018-07-10T11:23:05.211Z,99095.88
2018-07-10T11:26:12.167Z,99101.11
2018-07-10T11:29:15.769Z,99086.75
2018-07-10T11:32:19.267Z,99094.92
2018-07-10T11:35:23.025Z,99089.98
2018-07-10T11:38:26.718Z,99093.38
2018-07-10T11:41:31.319Z,99088.83
2018-07-10T11:44:34.895Z,99090.70
2018-07-10T11:47:42.537Z,99086.84
2018-07-10T11:50:46.742Z,99092.62
2018-07-10T11:53:50.129Z,99092.88
2018-07-10T11:56:53.926Z,99092.75
2018-07-10T11:59:57.685Z,99100.76
2018-07-10T12:03:03.572Z,99103.66
2018-07-10T12:06:07.317Z,99100.05
2018-07-10T12:09:10.473Z,99100.58
2018-07-10T12:12:13.937Z,99103.31
2018-07-10T12:15:17.385Z,99114.91
2018-07-10T12:18:20.591Z,99114.72
2018-07-10T12:21:24.121Z,99126.23
2018-07-10T12:24:27.670Z,99117.25
2018-07-10T12:27:31.393Z,99123.58
2018-07-10T12:30:35.659Z,99126.88
2018-07-10T12:33:39.947Z,99121.34
2018-07-10T12:36:42.998Z,99117.31
2018-07-10T12:39:46.089Z,99117.13
2018-07-10T12:42:50.558Z,99117.06
2018-07-10T12:45:54.020Z,99126.09
2018-07-10T12:48:57.322Z,99110.38
2018-07-10T12:52:01.037Z,99107.21
2018-07-10T12:55:04.518Z,99103.30
2018-07-10T12:58:09.109Z,99097.34
2018-07-10T13:01:12.640Z,99097.67
2018-07-10T13:04:16.027Z,99103.55
2018-07-10T13:07:19.481Z,99094.73
2018-07-10T13:10:22.948Z,99091.05
2018-07-10T13:13:27.365Z,99093.37
2018-07-10T13:16:31.107Z,99093.08
2018-07-10T13:19:35.373Z,99093.16
2018-07-10T13:22:38.949Z,99095.36
2018-07-10T13:25:42.131Z,99090.09
2018-07-10T13:28:45.355Z,99099.33
2018-07-10T13:32:51.497Z,99096.58
2018-07-10T13:35:54.912Z,99096.53
2018-07-10T13:38:59.091Z,99091.95
2018-07-10T13:42:02.457Z,99097.08
2018-07-10T13:45:06.169Z,99089.06
2018-07-10T13:48:09.634Z,99087.99
2018-07-10T13:51:13.236Z,99083.03
2018-07-10T13:54:16.677Z,99082.00
2018-07-10T13:57:19.722Z,99088.73
2018-07-10T14:00:23.042Z,99072.17
2018-07-10T14:03:26.341Z,99071.58
2018-07-10T14:06:29.871Z,99066.87
2018-07-10T14:09:33.406Z,99060.06
2018-07-10T14:12:36.914Z,99048.90
2018-07-10T14:15:40.693Z,99048.08
2018-07-10T14:18:44.294Z,99050.98
2018-07-10T14:21:47.949Z,99052.23
2018-07-10T14:24:51.430Z,99050.73
2018-07-10T14:27:55.127Z,99056.30
2018-07-10T14:30:58.184Z,99056.95
2018-07-10T14:34:01.450Z,99056.03
2018-07-10T14:37:05.431Z,99057.38
2018-07-10T14:40:09.297Z,99050.97
2018-07-10T14:43:14.765Z,99049.34
2018-07-10T14:46:24.121Z,99040.57
2018-07-10T14:49:27.365Z,99046.33
2018-07-10T14:52:30.658Z,99048.02
2018-07-10T14:55:34.317Z,99045.88
2018-07-10T14:58:37.493Z,99047.33
2018-07-10T15:01:41.051Z,99042.53
2018-07-10T15:04:44.478Z,99042.17
2018-07-10T15:07:48.089Z,99044.45
2018-07-10T15:10:51.379Z,99036.81
2018-07-10T15:14:04.296Z,99043.86
2018-07-10T15:17:13.386Z,99045.70
2018-07-10T15:20:16.833Z,99044.48
2018-07-10T15:23:20.307Z,99036.76
2018-07-10T15:26:24.291Z,99034.26
2018-07-10T15:29:29.712Z,99027.31
2018-07-10T15:32:32.745Z,99033.72
2018-07-10T15:35:36.032Z,99030.99
2018-07-10T15:38:39.585Z,99029.36
2018-07-10T15:41:42.989Z,99032.81
2018-07-10T15:44:46.342Z,99020.45
2018-07-10T15:47:49.794Z,99026.95
2018-07-10T15:50:53.159Z,99038.30
2018-07-10T15:53:56.514Z,99027.92
2018-07-10T15:57:00.201Z,99032.06
2018-07-10T16:00:06.185Z,99039.52
2018-07-10T16:03:09.434Z,99044.89
2018-07-10T16:06:12.716Z,99058.95
2018-07-10T16:09:20.365Z,99059.23
2018-07-10T16:12:24.554Z,99060.90
2018-07-10T16:15:27.879Z,99065.15
2018-07-10T16:18:32.103Z,99069.30
2018-07-10T16:21:50.524Z,99062.09
2018-07-10T16:25:03.783Z,99063.91
2018-07-10T16:28:09.386Z,99059.34
2018-07-10T16:31:14.499Z,99049.30
2018-07-10T16:34:19.680Z,99040.28
2018-07-10T16:37:23.822Z,99038.03
2018-07-10T16:40:32.111Z,99031.37
2018-07-10T16:43:35.297Z,99022.72
2018-07-10T16:46:39.655Z,99022.97
2018-07-10T16:49:44.953Z,99016.55
2018-07-10T16:52:54.039Z,99005.68
2018-07-10T16:55:57.367Z,98999.66
2018-07-10T16:59:07.521Z,98992.72
2018-07-10T17:02:12.942Z,98996.00
2018-07-10T17:05:18.656Z,98987.30
2018-07-10T17:08:22.075Z,98984.24
2018-07-10T17:11:25.347Z,98977.91
2018-07-10T17:14:28.597Z,98976.49
2018-07-10T17:17:31.862Z,98973.30
2018-07-10T17:20:35.286Z,98975.77
2018-07-10T17:23:38.796Z,98967.47
2018-07-10T17:26:41.989Z,98964.78
2018-07-10T17:30:02.995Z,98962.05
2018-07-10T17:33:06.412Z,98948.29
2018-07-10T17:36:09.856Z,98952.87
2018-07-10T17:39:13.253Z,98953.12
2018-07-10T17:42:16.679Z,98960.98
2018-07-10T17:45:22.047Z,98962.56
2018-07-10T17:48:25.279Z,98951.65
2018-07-10T17:51:28.563Z,98952.25
2018-07-10T17:54:31.980Z,98940.09
2018-07-10T17:57:35.345Z,98944.98
2018-07-10T18:00:38.566Z,98947.92
2018-07-10T18:03:41.789Z,98942.22
2018-07-10T18:06:45.260Z,98936.13
2018-07-10T18:09:48.833Z,98942.74
2018-07-10T18:12:55.465Z,98937.45
2018-07-10T18:15:58.893Z,98945.81
2018-07-10T18:19:03.168Z,98939.33
2018-07-10T18:22:06.531Z,98934.98
2018-07-10T18:25:10.172Z,98937.75
2018-07-10T18:28:13.791Z,98924.16
2018-07-10T18:31:16.999Z,98937.49
2018-07-10T18:34:20.201Z,98924.92
2018-07-10T18:37:23.537Z,98936.16
2018-07-10T18:40:26.800Z,98937.95
2018-07-10T18:43:30.254Z,98945.73
2018-07-10T18:46:33.558Z,98957.52
2018-07-10T18:49:36.857Z,98958.88
2018-07-10T18:52:40.159Z,98946.83
2018-07-10T18:55:43.646Z,98955.88
2018-07-10T18:59:18.689Z,98960.75
2018-07-10T19:02:48.169Z,98963.69
2018-07-10T19:05:55.040Z,98963.89
2018-07-10T19:08:58.097Z,98968.66
2018-07-10T19:12:03.008Z,98967.03
2018-07-10T19:15:07.092Z,98971.98
2018-07-10T19:18:11.131Z,98966.81
2018-07-10T19:21:31.164Z,98960.21
2018-07-10T19:24:35.674Z,98955.64
2018-07-10T19:27:39.949Z,98957.97
2018-07-10T19:30:50.462Z,98953.56
2018-07-10T19:33:55.832Z,98956.00
2018-07-10T19:36:59.125Z,98954.88
2018-07-10T19:40:02.437Z,98955.11
2018-07-10T19:43:05.731Z,98943.08
2018-07-10T19:46:10.194Z,98946.48
2018-07-10T19:49:16.571Z,98952.28
2018-07-10T19:52:20.259Z,98945.39
2018-07-10T19:55:25.348Z,98939.13
2018-07-10T19:58:33.834Z,98934.87
2018-07-10T20:01:57.710Z,98932.25
2018-07-10T20:05:03.522Z,98945.28
2018-07-10T20:08:12.531Z,98962.80
2018-07-10T20:11:25.797Z,98960.66
2018-07-10T20:14:32.811Z,98955.30
2018-07-10T20:17:44.606Z,98952.56
2018-07-10T20:21:01.685Z,98955.25
2018-07-10T20:24:15.678Z,98952.88
2018-07-10T20:27:54.546Z,98974.79
2018-07-10T20:31:04.204Z,98970.91
2018-07-10T20:34:10.782Z,98985.55
2018-07-10T20:37:24.867Z,98988.30
2018-07-10T20:40:32.460Z,98985.24
2018-07-10T20:43:39.325Z,99005.20
2018-07-10T20:46:46.959Z,98994.81
2018-07-10T20:50:02.559Z,98988.00
2018-07-10T20:53:15.208Z,98985.62
2018-07-10T20:56:41.925Z,98986.62
2018-07-10T20:59:45.649Z,98987.99
2018-07-10T21:03:00.313Z,98990.68
2018-07-10T21:08:19.912Z,98998.56
2018-07-10T21:11:32.399Z,98982.61
2018-07-10T21:15:16.444Z,98981.09
2018-07-10T21:21:11.489Z,98968.64
2018-07-10T21:24:24.797Z,99009.52
2018-07-10T21:29:44.320Z,99006.31
2018-07-10T21:33:03.766Z,98993.66
2018-07-10T21:36:17.426Z,98994.67
2018-07-10T21:39:32.253Z,99006.90
2018-07-10T21:44:54.014Z,98995.45
2018-07-10T21:48:11.630Z,99006.47
2018-07-10T21:51:14.769Z,99008.95
2018-07-10T21:54:17.939Z,99006.55
2018-07-10T21:57:25.816Z,99002.67
2018-07-10T22:02:46.977Z,99005.52
2018-07-10T22:05:50.194Z,99002.94
2018-07-10T22:08:53.552Z,99008.23
2018-07-10T22:11:59.076Z,99009.27
2018-07-10T22:15:02.463Z,99007.54
2018-07-10T22:18:05.726Z,99008.72
2018-07-10T22:21:08.828Z,99013.28
2018-07-10T22:24:12.058Z,99013.06
2018-07-10T22:27:15.293Z,99012.48
2018-07-10T22:30:24.147Z,99004.66
2018-07-10T22:33:27.356Z,99004.06
2018-07-10T22:36:30.828Z,99010.80
2018-07-10T22:39:34.141Z,99015.23
2018-07-10T22:42:37.524Z,99012.33
2018-07-10T22:45:40.761Z,99020.19
2018-07-10T22:48:44.061Z,99017.39
2018-07-10T22:51:47.279Z,99020.43
2018-07-10T22:54:50.331Z,99019.08
2018-07-10T22:58:02.325Z,99019.88
2018-07-10T23:01:05.533Z,99016.38
2018-07-10T23:04:08.995Z,99008.94
2018-07-10T23:07:12.051Z,99015.59
2018-07-10T23:10:15.202Z,99010.45
2018-07-10T23:13:18.845Z,99011.86
2018-07-10T23:16:21.936Z,99011.66
2018-07-10T23:19:25.344Z,99009.88
2018-07-10T23:23:00.189Z,99013.03
2018-07-10T23:26:03.352Z,99022.95
2018-07-10T23:29:06.725Z,99009.50
2018-07-10T23:32:09.999Z,99015.70
2018-07-10T23:35:13.236Z,99019.53
2018-07-10T23:38:28.005Z,99023.33
2018-07-10T23:41:36.320Z,99040.11
2018-07-10T23:44:42.730Z,99022.69
2018-07-10T23:47:49.880Z,99019.88
2018-07-10T23:50:53.247Z,99022.92
2018-07-10T23:53:56.362Z,99023.04
2018-07-10T23:56:59.534Z,99022.12
